Bluffton, MN

10:45 AM CDT on October 31, 2014 (GMT -0500)
Wadena Municipal | Change Station
CLOSE
Current Station
Airport
Location: Wadena,
Elevation: 1371 ft
Nearby Weather Stations

Elev 1371 ft 46.45 °N, 95.21 °W | Updated 11 minutes ago

Clear
Clear
27 °F
Feels Like 21 °F
N
5
Wind Variable Wind from NNW

Today
High -- | Low -- °F
--% Chance of Precip.
Yesterday
High -- | Low -- °F
Precip. -- in
8:00 AM 6:07 PM
First Quarter, 56% visible
Pressure 30.59 in
Visibility 10.0 miles
Clouds Clear
Windchill 21 °F
Dew Point 19 °F
Humidity 74%
Rainfall 0.00 in
Snow Depth Not available.
UV 2 out of 12
Pollen .10 out of 12
Air Quality Not available.
Flu Activity Not available.
METAR KADC 311534Z AUTO 33004KT 10SM CLR M03/M07 A3059 RMK AO2

More Conditions Fewer Conditions

Pressure 30.59 in
Visibility 10.0 miles
Clouds Clear
Windchill 21 °F
Dew Point 19 °F
Humidity 74%
Rainfall 0.00 in
Snow Depth Not available.
UV 2 out of 12
Pollen .10 out of 12
Air Quality Not available.
Flu Activity Not available.
METAR KADC 311534Z AUTO 33004KT 10SM CLR M03/M07 A3059 RMK AO2

More Conditions Fewer Conditions

10-Day Weather Forecast

Almanac

Astronomy

Oct. 31, 2014 Rise Set
Actual Time
Civil Twilight
Nautical Twilight
Astronomical Twilight
Moon
Length of Visible Light
Length of Day
Tomorrow will be .
, % of the Moon is Illuminated

Today's Extremes

State Highs State Lows

Community

WunderPhotos

Upload Photos

1,766,644 photos uploaded!

WunderBlogs® & News

Nearby

Air Quality

  Air Quality AQ Index Pollutant
Not available.

Snow Depth

Station Depth Elevation

Earthquake Activity

City Distance Mag. Time & Date
Minimum magnitude displayed is 2.5.

Coastal Water Temperatures

Place Temperature

Nearby Weather Stations